sensor_id;sensor_type;location;lat;lon;timestamp;P1;durP1;ratioP1;P2;durP2;ratioP2
18159;SDS011;9205;52.032;4.314;2024-01-07T00:02:22;4.60;;;4.40;;
18159;SDS011;9205;52.032;4.314;2024-01-07T00:04:49;5.90;;;5.50;;
18159;SDS011;9205;52.032;4.314;2024-01-07T00:07:16;5.23;;;5.00;;
18159;SDS011;9205;52.032;4.314;2024-01-07T00:09:45;4.33;;;4.13;;
18159;SDS011;9205;52.032;4.314;2024-01-07T00:12:13;4.03;;;3.83;;
18159;SDS011;9205;52.032;4.314;2024-01-07T00:14:40;5.70;;;5.20;;
18159;SDS011;9205;52.032;4.314;2024-01-07T00:17:07;5.97;;;5.57;;
18159;SDS011;9205;52.032;4.314;2024-01-07T00:19:37;6.07;;;5.77;;
18159;SDS011;9205;52.032;4.314;2024-01-07T00:22:05;5.77;;;5.37;;
18159;SDS011;9205;52.032;4.314;2024-01-07T00:24:32;5.47;;;5.17;;
18159;SDS011;9205;52.032;4.314;2024-01-07T00:27:00;5.50;;;5.10;;
18159;SDS011;9205;52.032;4.314;2024-01-07T00:29:27;5.63;;;5.33;;
18159;SDS011;9205;52.032;4.314;2024-01-07T00:31:54;5.40;;;4.90;;
18159;SDS011;9205;52.032;4.314;2024-01-07T00:34:21;5.37;;;5.07;;
18159;SDS011;9205;52.032;4.314;2024-01-07T00:36:50;4.70;;;4.50;;
18159;SDS011;9205;52.032;4.314;2024-01-07T00:39:17;5.30;;;5.00;;
18159;SDS011;9205;52.032;4.314;2024-01-07T00:41:44;5.23;;;4.93;;
18159;SDS011;9205;52.032;4.314;2024-01-07T00:44:12;5.87;;;5.17;;
18159;SDS011;9205;52.032;4.314;2024-01-07T00:46:39;4.43;;;4.23;;
18159;SDS011;9205;52.032;4.314;2024-01-07T00:49:06;5.97;;;5.40;;
18159;SDS011;9205;52.032;4.314;2024-01-07T00:51:33;4.90;;;4.70;;
18159;SDS011;9205;52.032;4.314;2024-01-07T00:54:02;4.70;;;4.50;;
18159;SDS011;9205;52.032;4.314;2024-01-07T00:56:29;4.90;;;4.70;;
18159;SDS011;9205;52.032;4.314;2024-01-07T00:58:56;5.00;;;4.70;;
18159;SDS011;9205;52.032;4.314;2024-01-07T01:01:24;5.10;;;4.70;;
18159;SDS011;9205;52.032;4.314;2024-01-07T01:03:51;6.10;;;4.90;;
18159;SDS011;9205;52.032;4.314;2024-01-07T01:06:18;4.50;;;4.30;;
18159;SDS011;9205;52.032;4.314;2024-01-07T01:08:45;5.50;;;4.90;;
18159;SDS011;9205;52.032;4.314;2024-01-07T01:11:14;5.30;;;5.00;;
18159;SDS011;9205;52.032;4.314;2024-01-07T01:13:41;5.83;;;5.37;;
18159;SDS011;9205;52.032;4.314;2024-01-07T01:16:08;4.93;;;4.67;;
18159;SDS011;9205;52.032;4.314;2024-01-07T01:18:35;4.40;;;4.10;;
18159;SDS011;9205;52.032;4.314;2024-01-07T01:21:02;4.40;;;4.20;;
18159;SDS011;9205;52.032;4.314;2024-01-07T01:23:31;4.60;;;4.40;;
18159;SDS011;9205;52.032;4.314;2024-01-07T01:25:58;4.30;;;4.10;;
18159;SDS011;9205;52.032;4.314;2024-01-07T01:28:26;5.30;;;4.97;;
18159;SDS011;9205;52.032;4.314;2024-01-07T01:30:53;5.57;;;5.03;;
18159;SDS011;9205;52.032;4.314;2024-01-07T01:33:20;5.03;;;4.73;;
18159;SDS011;9205;52.032;4.314;2024-01-07T01:35:48;5.20;;;4.90;;
18159;SDS011;9205;52.032;4.314;2024-01-07T01:38:15;5.57;;;5.27;;
18159;SDS011;9205;52.032;4.314;2024-01-07T01:40:43;5.03;;;4.73;;
18159;SDS011;9205;52.032;4.314;2024-01-07T01:43:10;5.83;;;5.53;;
18159;SDS011;9205;52.032;4.314;2024-01-07T01:45:39;5.07;;;4.87;;
18159;SDS011;9205;52.032;4.314;2024-01-07T01:48:06;4.97;;;4.77;;
18159;SDS011;9205;52.032;4.314;2024-01-07T01:50:33;6.87;;;5.47;;
18159;SDS011;9205;52.032;4.314;2024-01-07T01:53:01;5.07;;;4.77;;
18159;SDS011;9205;52.032;4.314;2024-01-07T01:55:28;5.00;;;4.80;;
18159;SDS011;9205;52.032;4.314;2024-01-07T01:57:55;5.43;;;5.13;;
18159;SDS011;9205;52.032;4.314;2024-01-07T02:00:29;5.73;;;5.33;;
18159;SDS011;9205;52.032;4.314;2024-01-07T02:02:58;6.23;;;5.83;;
18159;SDS011;9205;52.032;4.314;2024-01-07T02:05:26;6.07;;;5.70;;
18159;SDS011;9205;52.032;4.314;2024-01-07T02:07:54;6.73;;;6.33;;
18159;SDS011;9205;52.032;4.314;2024-01-07T02:10:22;6.00;;;5.70;;
18159;SDS011;9205;52.032;4.314;2024-01-07T02:12:49;6.50;;;6.10;;
18159;SDS011;9205;52.032;4.314;2024-01-07T02:15:16;5.33;;;5.03;;
18159;SDS011;9205;52.032;4.314;2024-01-07T02:17:44;5.33;;;5.07;;
18159;SDS011;9205;52.032;4.314;2024-01-07T02:20:12;6.40;;;6.00;;
18159;SDS011;9205;52.032;4.314;2024-01-07T02:22:39;5.13;;;4.73;;
18159;SDS011;9205;52.032;4.314;2024-01-07T02:25:08;5.67;;;5.37;;
18159;SDS011;9205;52.032;4.314;2024-01-07T02:27:35;5.10;;;4.90;;
18159;SDS011;9205;52.032;4.314;2024-01-07T02:30:02;5.63;;;5.33;;
18159;SDS011;9205;52.032;4.314;2024-01-07T02:32:31;5.17;;;4.97;;
18159;SDS011;9205;52.032;4.314;2024-01-07T02:35:00;6.07;;;5.60;;
18159;SDS011;9205;52.032;4.314;2024-01-07T02:37:27;6.07;;;5.63;;
18159;SDS011;9205;52.032;4.314;2024-01-07T02:39:55;4.70;;;4.50;;
18159;SDS011;9205;52.032;4.314;2024-01-07T02:42:23;4.80;;;4.60;;
18159;SDS011;9205;52.032;4.314;2024-01-07T02:44:50;4.60;;;4.23;;
18159;SDS011;9205;52.032;4.314;2024-01-07T02:47:17;5.17;;;4.87;;
18159;SDS011;9205;52.032;4.314;2024-01-07T02:49:45;5.07;;;4.80;;
18159;SDS011;9205;52.032;4.314;2024-01-07T02:52:13;5.23;;;4.93;;
18159;SDS011;9205;52.032;4.314;2024-01-07T02:54:40;5.53;;;5.23;;
18159;SDS011;9205;52.032;4.314;2024-01-07T02:57:07;5.37;;;5.07;;
18159;SDS011;9205;52.032;4.314;2024-01-07T02:59:36;4.80;;;4.60;;
18159;SDS011;9205;52.032;4.314;2024-01-07T03:02:03;6.07;;;5.67;;
18159;SDS011;9205;52.032;4.314;2024-01-07T03:04:30;5.37;;;5.03;;
18159;SDS011;9205;52.032;4.314;2024-01-07T03:06:58;5.70;;;4.77;;
18159;SDS011;9205;52.032;4.314;2024-01-07T03:09:25;5.07;;;4.77;;
18159;SDS011;9205;52.032;4.314;2024-01-07T03:11:52;5.50;;;5.10;;
18159;SDS011;9205;52.032;4.314;2024-01-07T03:14:19;5.03;;;4.73;;
18159;SDS011;9205;52.032;4.314;2024-01-07T03:16:49;4.30;;;4.10;;
18159;SDS011;9205;52.032;4.314;2024-01-07T03:19:16;4.40;;;4.20;;
18159;SDS011;9205;52.032;4.314;2024-01-07T03:21:44;5.40;;;5.10;;
18159;SDS011;9205;52.032;4.314;2024-01-07T03:24:11;5.00;;;4.70;;
18159;SDS011;9205;52.032;4.314;2024-01-07T03:26:38;6.07;;;5.67;;
18159;SDS011;9205;52.032;4.314;2024-01-07T03:29:05;5.60;;;5.30;;
18159;SDS011;9205;52.032;4.314;2024-01-07T03:31:32;5.43;;;5.13;;
18159;SDS011;9205;52.032;4.314;2024-01-07T03:34:01;5.87;;;5.47;;
18159;SDS011;9205;52.032;4.314;2024-01-07T03:36:28;5.73;;;5.33;;
18159;SDS011;9205;52.032;4.314;2024-01-07T03:38:55;5.40;;;5.10;;
18159;SDS011;9205;52.032;4.314;2024-01-07T03:41:22;5.63;;;5.33;;
18159;SDS011;9205;52.032;4.314;2024-01-07T03:43:50;6.03;;;5.30;;
18159;SDS011;9205;52.032;4.314;2024-01-07T03:46:18;4.60;;;4.40;;
18159;SDS011;9205;52.032;4.314;2024-01-07T03:48:46;4.83;;;4.43;;
18159;SDS011;9205;52.032;4.314;2024-01-07T03:51:14;4.33;;;4.13;;
18159;SDS011;9205;52.032;4.314;2024-01-07T03:53:41;5.27;;;4.87;;
18159;SDS011;9205;52.032;4.314;2024-01-07T03:56:08;4.73;;;4.43;;
18159;SDS011;9205;52.032;4.314;2024-01-07T03:58:35;4.63;;;4.43;;
18159;SDS011;9205;52.032;4.314;2024-01-07T04:01:03;6.27;;;5.67;;
18159;SDS011;9205;52.032;4.314;2024-01-07T04:03:30;6.87;;;6.40;;
18159;SDS011;9205;52.032;4.314;2024-01-07T04:05:57;6.57;;;6.17;;
18159;SDS011;9205;52.032;4.314;2024-01-07T04:08:26;4.93;;;4.63;;
18159;SDS011;9205;52.032;4.314;2024-01-07T04:10:53;5.63;;;5.33;;
18159;SDS011;9205;52.032;4.314;2024-01-07T04:13:20;5.13;;;4.83;;
18159;SDS011;9205;52.032;4.314;2024-01-07T04:15:48;5.83;;;5.43;;
18159;SDS011;9205;52.032;4.314;2024-01-07T04:18:15;5.43;;;5.13;;
18159;SDS011;9205;52.032;4.314;2024-01-07T04:20:42;5.10;;;4.80;;
18159;SDS011;9205;52.032;4.314;2024-01-07T04:23:09;8.03;;;5.33;;
18159;SDS011;9205;52.032;4.314;2024-01-07T04:25:38;5.03;;;4.63;;
18159;SDS011;9205;52.032;4.314;2024-01-07T04:28:07;7.93;;;4.73;;
18159;SDS011;9205;52.032;4.314;2024-01-07T04:30:35;5.50;;;5.10;;
18159;SDS011;9205;52.032;4.314;2024-01-07T04:33:02;4.87;;;4.57;;
18159;SDS011;9205;52.032;4.314;2024-01-07T04:35:30;4.47;;;4.23;;
18159;SDS011;9205;52.032;4.314;2024-01-07T04:37:57;5.10;;;4.87;;
18159;SDS011;9205;52.032;4.314;2024-01-07T04:40:24;4.70;;;4.50;;
18159;SDS011;9205;52.032;4.314;2024-01-07T04:42:52;5.23;;;4.83;;
18159;SDS011;9205;52.032;4.314;2024-01-07T04:45:19;5.27;;;4.97;;
18159;SDS011;9205;52.032;4.314;2024-01-07T04:47:47;5.03;;;4.73;;
18159;SDS011;9205;52.032;4.314;2024-01-07T04:50:14;5.60;;;5.10;;
18159;SDS011;9205;52.032;4.314;2024-01-07T04:52:44;5.33;;;4.83;;
18159;SDS011;9205;52.032;4.314;2024-01-07T04:55:12;5.83;;;5.53;;
18159;SDS011;9205;52.032;4.314;2024-01-07T04:57:39;5.00;;;4.50;;
18159;SDS011;9205;52.032;4.314;2024-01-07T05:00:08;5.20;;;4.90;;
18159;SDS011;9205;52.032;4.314;2024-01-07T05:02:37;6.50;;;6.10;;
18159;SDS011;9205;52.032;4.314;2024-01-07T05:05:05;5.50;;;5.20;;
18159;SDS011;9205;52.032;4.314;2024-01-07T05:07:34;5.57;;;5.23;;
18159;SDS011;9205;52.032;4.314;2024-01-07T05:10:01;5.13;;;4.90;;
18159;SDS011;9205;52.032;4.314;2024-01-07T05:12:29;5.83;;;4.97;;
18159;SDS011;9205;52.032;4.314;2024-01-07T05:14:56;5.63;;;5.13;;
18159;SDS011;9205;52.032;4.314;2024-01-07T05:17:25;4.60;;;4.40;;
18159;SDS011;9205;52.032;4.314;2024-01-07T05:19:52;4.70;;;4.50;;
18159;SDS011;9205;52.032;4.314;2024-01-07T05:22:19;5.43;;;5.03;;
18159;SDS011;9205;52.032;4.314;2024-01-07T05:24:47;4.57;;;4.37;;
18159;SDS011;9205;52.032;4.314;2024-01-07T05:27:14;4.83;;;4.53;;
18159;SDS011;9205;52.032;4.314;2024-01-07T05:29:44;4.67;;;4.37;;
18159;SDS011;9205;52.032;4.314;2024-01-07T05:32:12;4.90;;;4.50;;
18159;SDS011;9205;52.032;4.314;2024-01-07T05:34:40;5.07;;;4.67;;
18159;SDS011;9205;52.032;4.314;2024-01-07T05:37:07;4.90;;;4.60;;
18159;SDS011;9205;52.032;4.314;2024-01-07T05:39:35;5.27;;;4.87;;
18159;SDS011;9205;52.032;4.314;2024-01-07T05:42:03;5.93;;;4.97;;
18159;SDS011;9205;52.032;4.314;2024-01-07T05:44:30;5.20;;;4.90;;
18159;SDS011;9205;52.032;4.314;2024-01-07T05:46:57;6.20;;;5.43;;
18159;SDS011;9205;52.032;4.314;2024-01-07T05:49:24;4.40;;;4.20;;
18159;SDS011;9205;52.032;4.314;2024-01-07T05:51:53;5.60;;;5.07;;
18159;SDS011;9205;52.032;4.314;2024-01-07T05:54:20;4.50;;;4.20;;
18159;SDS011;9205;52.032;4.314;2024-01-07T05:56:47;7.83;;;5.20;;
18159;SDS011;9205;52.032;4.314;2024-01-07T05:59:14;5.27;;;4.77;;
18159;SDS011;9205;52.032;4.314;2024-01-07T06:01:42;4.63;;;4.33;;
18159;SDS011;9205;52.032;4.314;2024-01-07T06:04:09;7.10;;;5.27;;
18159;SDS011;9205;52.032;4.314;2024-01-07T06:06:36;4.40;;;4.10;;
18159;SDS011;9205;52.032;4.314;2024-01-07T06:09:04;4.80;;;4.40;;
18159;SDS011;9205;52.032;4.314;2024-01-07T06:11:32;4.70;;;4.40;;
18159;SDS011;9205;52.032;4.314;2024-01-07T06:13:59;5.87;;;5.37;;
18159;SDS011;9205;52.032;4.314;2024-01-07T06:16:26;4.23;;;3.97;;
18159;SDS011;9205;52.032;4.314;2024-01-07T06:18:53;4.10;;;3.90;;
18159;SDS011;9205;52.032;4.314;2024-01-07T06:21:20;5.23;;;4.93;;
18159;SDS011;9205;52.032;4.314;2024-01-07T06:23:47;5.27;;;4.97;;
18159;SDS011;9205;52.032;4.314;2024-01-07T06:26:16;5.07;;;4.63;;
18159;SDS011;9205;52.032;4.314;2024-01-07T06:28:43;4.63;;;4.33;;
18159;SDS011;9205;52.032;4.314;2024-01-07T06:31:10;5.20;;;4.03;;
18159;SDS011;9205;52.032;4.314;2024-01-07T06:33:37;5.63;;;5.30;;
18159;SDS011;9205;52.032;4.314;2024-01-07T06:36:05;5.40;;;5.00;;
18159;SDS011;9205;52.032;4.314;2024-01-07T06:38:32;4.97;;;4.57;;
18159;SDS011;9205;52.032;4.314;2024-01-07T06:41:00;5.47;;;5.13;;
18159;SDS011;9205;52.032;4.314;2024-01-07T06:43:31;5.30;;;4.90;;
18159;SDS011;9205;52.032;4.314;2024-01-07T06:45:58;5.53;;;5.00;;
18159;SDS011;9205;52.032;4.314;2024-01-07T06:48:25;4.10;;;3.90;;
18159;SDS011;9205;52.032;4.314;2024-01-07T06:50:52;4.33;;;4.13;;
18159;SDS011;9205;52.032;4.314;2024-01-07T06:53:20;4.27;;;3.97;;
18159;SDS011;9205;52.032;4.314;2024-01-07T06:55:47;5.23;;;4.43;;
18159;SDS011;9205;52.032;4.314;2024-01-07T06:58:14;6.97;;;5.13;;
18159;SDS011;9205;52.032;4.314;2024-01-07T07:00:43;5.03;;;4.73;;
18159;SDS011;9205;52.032;4.314;2024-01-07T07:03:10;5.67;;;5.20;;
18159;SDS011;9205;52.032;4.314;2024-01-07T07:05:37;5.97;;;5.57;;
18159;SDS011;9205;52.032;4.314;2024-01-07T07:08:05;5.00;;;4.60;;
18159;SDS011;9205;52.032;4.314;2024-01-07T07:10:32;5.50;;;5.17;;
18159;SDS011;9205;52.032;4.314;2024-01-07T07:12:59;5.73;;;5.40;;
18159;SDS011;9205;52.032;4.314;2024-01-07T07:15:27;5.80;;;5.40;;
18159;SDS011;9205;52.032;4.314;2024-01-07T07:17:56;5.93;;;5.53;;
18159;SDS011;9205;52.032;4.314;2024-01-07T07:20:23;6.13;;;5.53;;
18159;SDS011;9205;52.032;4.314;2024-01-07T07:22:50;5.67;;;5.27;;
18159;SDS011;9205;52.032;4.314;2024-01-07T07:25:17;6.10;;;5.60;;
18159;SDS011;9205;52.032;4.314;2024-01-07T07:27:45;5.90;;;5.50;;
18159;SDS011;9205;52.032;4.314;2024-01-07T07:30:12;5.30;;;5.00;;
18159;SDS011;9205;52.032;4.314;2024-01-07T07:32:40;5.53;;;5.03;;
18159;SDS011;9205;52.032;4.314;2024-01-07T07:35:09;5.50;;;5.00;;
18159;SDS011;9205;52.032;4.314;2024-01-07T07:37:36;5.60;;;5.07;;
18159;SDS011;9205;52.032;4.314;2024-01-07T07:40:04;5.20;;;4.90;;
18159;SDS011;9205;52.032;4.314;2024-01-07T07:42:33;5.60;;;5.20;;
18159;SDS011;9205;52.032;4.314;2024-01-07T07:45:00;11.37;;;5.27;;
18159;SDS011;9205;52.032;4.314;2024-01-07T07:47:28;5.53;;;5.13;;
18159;SDS011;9205;52.032;4.314;2024-01-07T07:49:55;5.50;;;5.00;;
18159;SDS011;9205;52.032;4.314;2024-01-07T07:52:23;6.43;;;4.93;;
18159;SDS011;9205;52.032;4.314;2024-01-07T07:54:51;5.10;;;4.70;;
18159;SDS011;9205;52.032;4.314;2024-01-07T07:57:18;4.63;;;4.33;;
18159;SDS011;9205;52.032;4.314;2024-01-07T07:59:45;5.00;;;4.60;;
18159;SDS011;9205;52.032;4.314;2024-01-07T08:02:13;4.97;;;4.70;;
18159;SDS011;9205;52.032;4.314;2024-01-07T08:04:40;4.57;;;4.37;;
18159;SDS011;9205;52.032;4.314;2024-01-07T08:07:07;4.93;;;4.63;;
18159;SDS011;9205;52.032;4.314;2024-01-07T08:09:36;4.90;;;4.50;;
18159;SDS011;9205;52.032;4.314;2024-01-07T08:12:04;4.97;;;4.67;;
18159;SDS011;9205;52.032;4.314;2024-01-07T08:14:33;4.37;;;4.17;;
18159;SDS011;9205;52.032;4.314;2024-01-07T08:17:00;4.87;;;4.57;;
18159;SDS011;9205;52.032;4.314;2024-01-07T08:19:29;4.27;;;4.07;;
18159;SDS011;9205;52.032;4.314;2024-01-07T08:21:57;4.77;;;4.50;;
18159;SDS011;9205;52.032;4.314;2024-01-07T08:24:24;4.63;;;4.27;;
18159;SDS011;9205;52.032;4.314;2024-01-07T08:26:54;4.13;;;3.90;;
18159;SDS011;9205;52.032;4.314;2024-01-07T08:29:21;4.47;;;4.17;;
18159;SDS011;9205;52.032;4.314;2024-01-07T08:31:48;5.23;;;4.93;;
18159;SDS011;9205;52.032;4.314;2024-01-07T08:34:15;4.33;;;4.03;;
18159;SDS011;9205;52.032;4.314;2024-01-07T08:36:42;5.03;;;4.37;;
18159;SDS011;9205;52.032;4.314;2024-01-07T08:39:10;5.47;;;4.53;;
18159;SDS011;9205;52.032;4.314;2024-01-07T08:41:37;4.27;;;4.07;;
18159;SDS011;9205;52.032;4.314;2024-01-07T08:44:06;5.13;;;4.73;;
18159;SDS011;9205;52.032;4.314;2024-01-07T08:46:34;4.30;;;4.10;;
18159;SDS011;9205;52.032;4.314;2024-01-07T08:49:01;4.33;;;4.13;;
18159;SDS011;9205;52.032;4.314;2024-01-07T08:51:29;5.83;;;5.27;;
18159;SDS011;9205;52.032;4.314;2024-01-07T08:53:56;3.80;;;3.57;;
18159;SDS011;9205;52.032;4.314;2024-01-07T08:56:24;4.47;;;4.20;;
18159;SDS011;9205;52.032;4.314;2024-01-07T08:58:51;3.93;;;3.73;;
18159;SDS011;9205;52.032;4.314;2024-01-07T09:01:20;5.30;;;4.10;;
18159;SDS011;9205;52.032;4.314;2024-01-07T09:03:47;14.77;;;4.90;;
18159;SDS011;9205;52.032;4.314;2024-01-07T09:06:14;5.03;;;4.63;;
18159;SDS011;9205;52.032;4.314;2024-01-07T09:08:41;4.90;;;4.50;;
18159;SDS011;9205;52.032;4.314;2024-01-07T09:11:09;5.13;;;4.73;;
18159;SDS011;9205;52.032;4.314;2024-01-07T09:13:38;5.73;;;5.07;;
18159;SDS011;9205;52.032;4.314;2024-01-07T09:16:05;4.40;;;4.07;;
18159;SDS011;9205;52.032;4.314;2024-01-07T09:18:36;5.00;;;3.70;;
18159;SDS011;9205;52.032;4.314;2024-01-07T09:21:03;3.80;;;3.60;;
18159;SDS011;9205;52.032;4.314;2024-01-07T09:23:31;4.27;;;4.07;;
18159;SDS011;9205;52.032;4.314;2024-01-07T09:26:01;4.60;;;4.30;;
18159;SDS011;9205;52.032;4.314;2024-01-07T09:28:29;3.83;;;3.63;;
18159;SDS011;9205;52.032;4.314;2024-01-07T09:30:57;4.40;;;4.10;;
18159;SDS011;9205;52.032;4.314;2024-01-07T09:33:24;3.97;;;3.77;;
18159;SDS011;9205;52.032;4.314;2024-01-07T09:35:52;4.13;;;3.93;;
18159;SDS011;9205;52.032;4.314;2024-01-07T09:38:20;4.10;;;3.90;;
18159;SDS011;9205;52.032;4.314;2024-01-07T09:40:47;4.20;;;4.00;;
18159;SDS011;9205;52.032;4.314;2024-01-07T09:43:15;4.07;;;3.87;;
18159;SDS011;9205;52.032;4.314;2024-01-07T09:45:45;4.50;;;4.20;;
18159;SDS011;9205;52.032;4.314;2024-01-07T09:48:13;4.33;;;4.03;;
18159;SDS011;9205;52.032;4.314;2024-01-07T09:50:41;4.23;;;3.93;;
18159;SDS011;9205;52.032;4.314;2024-01-07T09:53:10;4.63;;;4.03;;
18159;SDS011;9205;52.032;4.314;2024-01-07T09:55:46;3.50;;;3.30;;
18159;SDS011;9205;52.032;4.314;2024-01-07T09:58:22;3.90;;;3.70;;
18159;SDS011;9205;52.032;4.314;2024-01-07T10:00:51;3.60;;;3.40;;
18159;SDS011;9205;52.032;4.314;2024-01-07T10:03:18;3.73;;;3.53;;
18159;SDS011;9205;52.032;4.314;2024-01-07T10:05:46;3.67;;;3.47;;
18159;SDS011;9205;52.032;4.314;2024-01-07T10:08:14;4.50;;;3.97;;
18159;SDS011;9205;52.032;4.314;2024-01-07T10:10:41;3.67;;;3.47;;
18159;SDS011;9205;52.032;4.314;2024-01-07T10:13:08;4.20;;;3.80;;
18159;SDS011;9205;52.032;4.314;2024-01-07T10:15:36;4.13;;;3.83;;
18159;SDS011;9205;52.032;4.314;2024-01-07T10:18:03;3.93;;;3.63;;
18159;SDS011;9205;52.032;4.314;2024-01-07T10:20:32;3.87;;;3.57;;
18159;SDS011;9205;52.032;4.314;2024-01-07T10:23:01;3.03;;;2.93;;
18159;SDS011;9205;52.032;4.314;2024-01-07T10:25:30;3.70;;;3.50;;
18159;SDS011;9205;52.032;4.314;2024-01-07T10:27:59;3.40;;;3.27;;
18159;SDS011;9205;52.032;4.314;2024-01-07T10:30:26;3.07;;;2.87;;
18159;SDS011;9205;52.032;4.314;2024-01-07T10:32:55;3.50;;;3.30;;
18159;SDS011;9205;52.032;4.314;2024-01-07T10:35:25;2.90;;;2.80;;
18159;SDS011;9205;52.032;4.314;2024-01-07T10:37:58;3.77;;;3.57;;
18159;SDS011;9205;52.032;4.314;2024-01-07T10:40:26;4.60;;;4.20;;
18159;SDS011;9205;52.032;4.314;2024-01-07T10:42:56;2.80;;;2.70;;
18159;SDS011;9205;52.032;4.314;2024-01-07T10:45:25;3.40;;;3.20;;
18159;SDS011;9205;52.032;4.314;2024-01-07T10:47:54;3.20;;;3.00;;
18159;SDS011;9205;52.032;4.314;2024-01-07T10:50:26;3.43;;;3.23;;
18159;SDS011;9205;52.032;4.314;2024-01-07T10:52:57;2.80;;;2.70;;
18159;SDS011;9205;52.032;4.314;2024-01-07T10:55:31;6.30;;;3.50;;
18159;SDS011;9205;52.032;4.314;2024-01-07T10:58:03;4.17;;;3.93;;
18159;SDS011;9205;52.032;4.314;2024-01-07T11:00:31;3.13;;;2.97;;
18159;SDS011;9205;52.032;4.314;2024-01-07T11:03:02;2.93;;;2.83;;
18159;SDS011;9205;52.032;4.314;2024-01-07T11:05:39;7.93;;;3.67;;
18159;SDS011;9205;52.032;4.314;2024-01-07T11:08:16;2.80;;;2.70;;
18159;SDS011;9205;52.032;4.314;2024-01-07T11:10:53;8.83;;;3.37;;
18159;SDS011;9205;52.032;4.314;2024-01-07T11:13:34;3.10;;;2.90;;
18159;SDS011;9205;52.032;4.314;2024-01-07T11:16:04;2.83;;;2.73;;
18159;SDS011;9205;52.032;4.314;2024-01-07T11:18:37;2.97;;;2.67;;
18159;SDS011;9205;52.032;4.314;2024-01-07T11:21:05;2.70;;;2.60;;
18159;SDS011;9205;52.032;4.314;2024-01-07T11:23:34;3.00;;;2.80;;
18159;SDS011;9205;52.032;4.314;2024-01-07T11:26:04;2.83;;;2.73;;
18159;SDS011;9205;52.032;4.314;2024-01-07T11:28:49;3.77;;;2.70;;
18159;SDS011;9205;52.032;4.314;2024-01-07T11:31:17;2.70;;;2.60;;
18159;SDS011;9205;52.032;4.314;2024-01-07T11:33:46;3.57;;;3.27;;
18159;SDS011;9205;52.032;4.314;2024-01-07T11:36:15;3.37;;;3.17;;
18159;SDS011;9205;52.032;4.314;2024-01-07T11:38:44;3.10;;;3.00;;
18159;SDS011;9205;52.032;4.314;2024-01-07T11:41:14;2.63;;;2.47;;
18159;SDS011;9205;52.032;4.314;2024-01-07T11:43:53;3.20;;;3.00;;
18159;SDS011;9205;52.032;4.314;2024-01-07T11:46:22;3.33;;;3.13;;
18159;SDS011;9205;52.032;4.314;2024-01-07T11:48:50;4.87;;;3.00;;
18159;SDS011;9205;52.032;4.314;2024-01-07T11:51:23;2.50;;;2.40;;
18159;SDS011;9205;52.032;4.314;2024-01-07T11:53:51;3.00;;;2.90;;
18159;SDS011;9205;52.032;4.314;2024-01-07T11:56:18;2.97;;;2.77;;
18159;SDS011;9205;52.032;4.314;2024-01-07T11:58:45;2.60;;;2.50;;
18159;SDS011;9205;52.032;4.314;2024-01-07T12:01:15;2.50;;;2.40;;
18159;SDS011;9205;52.032;4.314;2024-01-07T12:03:43;2.60;;;2.50;;
18159;SDS011;9205;52.032;4.314;2024-01-07T12:06:11;2.83;;;2.63;;
18159;SDS011;9205;52.032;4.314;2024-01-07T12:08:39;2.87;;;2.73;;
18159;SDS011;9205;52.032;4.314;2024-01-07T12:11:06;2.70;;;2.50;;
18159;SDS011;9205;52.032;4.314;2024-01-07T12:13:35;2.23;;;2.13;;
18159;SDS011;9205;52.032;4.314;2024-01-07T12:16:04;1.90;;;1.80;;
18159;SDS011;9205;52.032;4.314;2024-01-07T12:18:33;7.80;;;2.47;;
18159;SDS011;9205;52.032;4.314;2024-01-07T12:21:03;1.93;;;1.83;;
18159;SDS011;9205;52.032;4.314;2024-01-07T12:23:33;2.10;;;2.00;;
18159;SDS011;9205;52.032;4.314;2024-01-07T12:26:07;2.50;;;2.40;;
18159;SDS011;9205;52.032;4.314;2024-01-07T12:28:35;2.20;;;2.10;;
18159;SDS011;9205;52.032;4.314;2024-01-07T12:31:03;2.50;;;2.30;;
18159;SDS011;9205;52.032;4.314;2024-01-07T12:33:32;2.20;;;2.10;;
18159;SDS011;9205;52.032;4.314;2024-01-07T12:36:00;2.03;;;1.93;;
18159;SDS011;9205;52.032;4.314;2024-01-07T12:38:27;2.40;;;2.20;;
18159;SDS011;9205;52.032;4.314;2024-01-07T12:40:55;6.90;;;2.50;;
18159;SDS011;9205;52.032;4.314;2024-01-07T12:43:22;3.67;;;2.53;;
18159;SDS011;9205;52.032;4.314;2024-01-07T12:45:49;2.50;;;2.40;;
18159;SDS011;9205;52.032;4.314;2024-01-07T12:48:18;1.90;;;1.80;;
18159;SDS011;9205;52.032;4.314;2024-01-07T12:50:46;2.10;;;2.00;;
18159;SDS011;9205;52.032;4.314;2024-01-07T12:53:14;2.00;;;1.90;;
18159;SDS011;9205;52.032;4.314;2024-01-07T12:55:42;2.77;;;2.40;;
18159;SDS011;9205;52.032;4.314;2024-01-07T12:58:09;2.33;;;2.13;;
18159;SDS011;9205;52.032;4.314;2024-01-07T13:00:36;1.93;;;1.83;;
18159;SDS011;9205;52.032;4.314;2024-01-07T13:03:04;2.13;;;2.03;;
18159;SDS011;9205;52.032;4.314;2024-01-07T13:05:32;1.93;;;1.83;;
18159;SDS011;9205;52.032;4.314;2024-01-07T13:08:01;1.80;;;1.70;;
18159;SDS011;9205;52.032;4.314;2024-01-07T13:10:29;1.70;;;1.60;;
18159;SDS011;9205;52.032;4.314;2024-01-07T13:12:56;2.03;;;1.93;;
18159;SDS011;9205;52.032;4.314;2024-01-07T13:15:24;2.33;;;2.10;;
18159;SDS011;9205;52.032;4.314;2024-01-07T13:17:51;1.80;;;1.70;;
18159;SDS011;9205;52.032;4.314;2024-01-07T13:20:18;2.13;;;1.87;;
18159;SDS011;9205;52.032;4.314;2024-01-07T13:22:45;2.43;;;2.33;;
18159;SDS011;9205;52.032;4.314;2024-01-07T13:25:14;2.10;;;1.77;;
18159;SDS011;9205;52.032;4.314;2024-01-07T13:27:41;1.67;;;1.67;;
18159;SDS011;9205;52.032;4.314;2024-01-07T13:30:09;1.87;;;1.77;;
18159;SDS011;9205;52.032;4.314;2024-01-07T13:32:37;1.50;;;1.50;;
18159;SDS011;9205;52.032;4.314;2024-01-07T13:35:04;1.87;;;1.77;;
18159;SDS011;9205;52.032;4.314;2024-01-07T13:37:35;1.70;;;1.67;;
18159;SDS011;9205;52.032;4.314;2024-01-07T13:40:03;1.80;;;1.70;;
18159;SDS011;9205;52.032;4.314;2024-01-07T13:42:34;1.87;;;1.77;;
18159;SDS011;9205;52.032;4.314;2024-01-07T13:45:01;2.20;;;2.10;;
18159;SDS011;9205;52.032;4.314;2024-01-07T13:47:29;1.80;;;1.70;;
18159;SDS011;9205;52.032;4.314;2024-01-07T13:49:56;4.13;;;1.67;;
18159;SDS011;9205;52.032;4.314;2024-01-07T13:52:23;1.80;;;1.70;;
18159;SDS011;9205;52.032;4.314;2024-01-07T13:54:50;1.90;;;1.80;;
18159;SDS011;9205;52.032;4.314;2024-01-07T13:57:17;1.50;;;1.50;;
18159;SDS011;9205;52.032;4.314;2024-01-07T13:59:47;1.77;;;1.67;;
18159;SDS011;9205;52.032;4.314;2024-01-07T14:02:14;2.03;;;1.83;;
18159;SDS011;9205;52.032;4.314;2024-01-07T14:04:44;1.97;;;1.80;;
18159;SDS011;9205;52.032;4.314;2024-01-07T14:07:11;1.50;;;1.50;;
18159;SDS011;9205;52.032;4.314;2024-01-07T14:09:39;1.57;;;1.53;;
18159;SDS011;9205;52.032;4.314;2024-01-07T14:12:06;1.40;;;1.40;;
18159;SDS011;9205;52.032;4.314;2024-01-07T14:14:33;1.60;;;1.50;;
18159;SDS011;9205;52.032;4.314;2024-01-07T14:17:02;1.70;;;1.60;;
18159;SDS011;9205;52.032;4.314;2024-01-07T14:19:29;1.30;;;1.30;;
18159;SDS011;9205;52.032;4.314;2024-01-07T14:21:57;1.70;;;1.60;;
18159;SDS011;9205;52.032;4.314;2024-01-07T14:24:24;1.40;;;1.40;;
18159;SDS011;9205;52.032;4.314;2024-01-07T14:26:51;1.60;;;1.50;;
18159;SDS011;9205;52.032;4.314;2024-01-07T14:29:19;1.33;;;1.33;;
18159;SDS011;9205;52.032;4.314;2024-01-07T14:31:47;1.53;;;1.50;;
18159;SDS011;9205;52.032;4.314;2024-01-07T14:34:16;1.47;;;1.47;;
18159;SDS011;9205;52.032;4.314;2024-01-07T14:36:43;1.30;;;1.30;;
18159;SDS011;9205;52.032;4.314;2024-01-07T14:39:10;1.40;;;1.40;;
18159;SDS011;9205;52.032;4.314;2024-01-07T14:41:38;1.20;;;1.20;;
18159;SDS011;9205;52.032;4.314;2024-01-07T14:44:05;1.27;;;1.27;;
18159;SDS011;9205;52.032;4.314;2024-01-07T14:46:33;1.30;;;1.30;;
18159;SDS011;9205;52.032;4.314;2024-01-07T14:49:01;1.97;;;1.77;;
18159;SDS011;9205;52.032;4.314;2024-01-07T14:51:30;2.00;;;1.90;;
18159;SDS011;9205;52.032;4.314;2024-01-07T14:53:57;1.30;;;1.30;;
18159;SDS011;9205;52.032;4.314;2024-01-07T14:56:25;1.20;;;1.20;;
18159;SDS011;9205;52.032;4.314;2024-01-07T14:58:52;1.40;;;1.40;;
18159;SDS011;9205;52.032;4.314;2024-01-07T15:01:19;1.23;;;1.23;;
18159;SDS011;9205;52.032;4.314;2024-01-07T15:03:46;2.07;;;1.87;;
18159;SDS011;9205;52.032;4.314;2024-01-07T15:06:15;1.70;;;1.60;;